createdAt,value
2019-06-01T00:00:46.782Z,16.50
2019-06-01T00:03:15.949Z,16.50
2019-06-01T00:05:45.213Z,16.40
2019-06-01T00:08:14.435Z,16.40
2019-06-01T00:10:43.582Z,16.40
2019-06-01T00:13:12.844Z,16.40
2019-06-01T00:15:42.069Z,16.40
2019-06-01T00:18:11.312Z,16.40
2019-06-01T00:20:40.537Z,16.30
2019-06-01T00:23:09.762Z,16.30
2019-06-01T00:25:38.918Z,16.30
2019-06-01T00:28:08.141Z,16.30
2019-06-01T00:30:37.352Z,16.30
2019-06-01T00:33:06.581Z,16.30
2019-06-01T00:35:35.758Z,16.30
2019-06-01T00:38:05.006Z,16.30
2019-06-01T00:40:34.159Z,16.20
2019-06-01T00:43:03.424Z,16.20
2019-06-01T00:45:32.645Z,16.10
2019-06-01T00:48:01.874Z,16.10
2019-06-01T00:50:31.106Z,16.10
2019-06-01T00:53:00.362Z,16.10
2019-06-01T00:55:29.591Z,16.10
2019-06-01T00:57:58.835Z,16.00
2019-06-01T01:00:42.839Z,16.00
2019-06-01T01:02:59.041Z,16.00
2019-06-01T01:05:28.184Z,16.00
2019-06-01T01:07:57.453Z,15.90
2019-06-01T01:10:26.691Z,15.80
2019-06-01T01:13:11.413Z,15.80
2019-06-01T01:15:40.663Z,15.80
2019-06-01T01:18:10.278Z,15.70
2019-06-01T01:20:39.921Z,15.70
2019-06-01T01:23:09.273Z,15.70
2019-06-01T01:25:38.522Z,15.50
2019-06-01T01:28:07.762Z,15.50
2019-06-01T01:30:36.991Z,15.60
2019-06-01T01:33:06.160Z,15.50
2019-06-01T01:35:35.405Z,15.50
2019-06-01T01:38:04.654Z,15.40
2019-06-01T01:40:33.866Z,15.40
2019-06-01T01:43:03.082Z,15.40
2019-06-01T01:45:32.399Z,15.50
2019-06-01T01:48:01.655Z,15.60
2019-06-01T01:50:30.871Z,15.50
2019-06-01T01:53:00.119Z,15.50
2019-06-01T01:55:29.348Z,15.50
2019-06-01T01:57:59.548Z,15.50
2019-06-01T02:00:37.975Z,15.50
2019-06-01T02:03:07.487Z,15.50
2019-06-01T02:05:36.729Z,15.50
2019-06-01T02:08:06.525Z,15.50
2019-06-01T02:10:35.724Z,15.60
2019-06-01T02:13:13.119Z,15.60
2019-06-01T02:15:42.891Z,15.50
2019-06-01T02:18:12.216Z,15.50
2019-06-01T02:20:41.458Z,15.40
2019-06-01T02:23:10.680Z,15.50
2019-06-01T02:25:39.962Z,15.40
2019-06-01T02:28:09.174Z,15.20
2019-06-01T02:30:38.425Z,15.00
2019-06-01T02:33:07.639Z,14.90
2019-06-01T02:35:36.892Z,14.90
2019-06-01T02:38:06.118Z,14.90
2019-06-01T02:40:36.163Z,14.90
2019-06-01T02:43:06.690Z,14.90
2019-06-01T02:45:36.502Z,14.90
2019-06-01T02:48:06.725Z,14.90
2019-06-01T02:50:36.354Z,14.90
2019-06-01T02:53:05.885Z,14.90
2019-06-01T02:55:35.173Z,14.90
2019-06-01T02:58:04.522Z,14.90
2019-06-01T03:01:55.935Z,14.90
2019-06-01T03:04:13.996Z,14.90
2019-06-01T03:06:44.728Z,15.00
2019-06-01T03:09:14.066Z,15.00
2019-06-01T03:11:43.307Z,15.00
2019-06-01T03:14:38.528Z,15.00
2019-06-01T03:17:12.029Z,15.10
2019-06-01T03:19:42.781Z,15.00
2019-06-01T03:22:15.023Z,15.00
2019-06-01T03:24:46.228Z,15.00
2019-06-01T03:27:18.323Z,15.10
2019-06-01T03:29:54.598Z,15.10
2019-06-01T03:32:35.126Z,15.10
2019-06-01T03:34:54.741Z,15.10
2019-06-01T03:37:23.954Z,15.00
2019-06-01T03:39:53.210Z,15.00
2019-06-01T03:42:23.150Z,15.00
2019-06-01T03:44:52.370Z,14.90
2019-06-01T03:47:21.528Z,14.90
2019-06-01T03:49:50.777Z,14.90
2019-06-01T03:52:20.006Z,14.90
2019-06-01T03:54:49.246Z,14.90
2019-06-01T03:57:18.470Z,14.90
2019-06-01T03:59:47.771Z,15.00
2019-06-01T04:02:16.905Z,15.00
2019-06-01T04:04:46.132Z,15.10
2019-06-01T04:07:15.380Z,15.10
2019-06-01T04:09:44.617Z,15.20
2019-06-01T04:12:13.889Z,15.20
2019-06-01T04:14:43.061Z,15.30
2019-06-01T04:17:12.321Z,15.30
2019-06-01T04:19:41.573Z,15.40
2019-06-01T04:22:13.079Z,15.40
2019-06-01T04:24:42.270Z,15.50
2019-06-01T04:27:12.365Z,15.50
2019-06-01T04:29:41.855Z,15.60
2019-06-01T04:32:11.080Z,15.60
2019-06-01T04:34:40.309Z,15.70
2019-06-01T04:37:09.567Z,15.80
2019-06-01T04:39:38.856Z,15.80
2019-06-01T04:42:08.024Z,15.80
2019-06-01T04:44:37.218Z,15.80
2019-06-01T04:47:06.669Z,15.80
2019-06-01T04:49:36.046Z,15.80
2019-06-01T04:52:05.258Z,15.80
2019-06-01T04:54:34.479Z,15.80
2019-06-01T04:57:04.770Z,15.90
2019-06-01T04:59:33.975Z,15.90
2019-06-01T05:02:03.169Z,16.00
2019-06-01T05:04:32.405Z,16.10
2019-06-01T05:07:01.679Z,16.20
2019-06-01T05:09:30.934Z,16.30
2019-06-01T05:12:00.195Z,16.50
2019-06-01T05:14:29.422Z,16.60
2019-06-01T05:16:58.657Z,16.80
2019-06-01T05:19:28.022Z,17.00
2019-06-01T05:21:57.274Z,17.20
2019-06-01T05:24:26.529Z,17.30
2019-06-01T05:26:55.779Z,17.40
2019-06-01T05:29:25.054Z,17.50
2019-06-01T05:31:54.302Z,17.60
2019-06-01T05:34:23.565Z,17.60
2019-06-01T05:36:52.828Z,17.60
2019-06-01T05:39:22.537Z,17.60
2019-06-01T05:41:51.716Z,17.70
2019-06-01T05:44:22.202Z,17.90
2019-06-01T05:46:53.076Z,18.00
2019-06-01T05:49:22.770Z,18.20
2019-06-01T05:51:52.176Z,18.30
2019-06-01T05:54:23.051Z,18.30
2019-06-01T05:56:52.375Z,18.40
2019-06-01T05:59:22.244Z,18.50
2019-06-01T06:01:52.534Z,18.60
2019-06-01T06:04:23.422Z,18.60
2019-06-01T06:06:53.643Z,18.70
2019-06-01T06:09:24.477Z,18.80
2019-06-01T06:11:54.862Z,18.80
2019-06-01T06:14:26.095Z,18.90
2019-06-01T06:16:56.245Z,19.00
2019-06-01T06:19:26.669Z,19.10
2019-06-01T06:21:55.994Z,19.20
2019-06-01T06:24:26.062Z,19.10
2019-06-01T06:26:55.859Z,19.00
2019-06-01T06:29:27.057Z,19.10
2019-06-01T06:31:56.423Z,19.30
2019-06-01T06:34:25.865Z,19.30
2019-06-01T06:36:55.105Z,19.40
2019-06-01T06:39:26.474Z,19.40
2019-06-01T06:41:57.368Z,19.50
2019-06-01T06:44:42.865Z,19.60
2019-06-01T06:47:28.804Z,19.50
2019-06-01T06:50:16.451Z,19.40
2019-06-01T06:53:04.780Z,19.50
2019-06-01T06:55:34.135Z,19.60
2019-06-01T06:58:27.061Z,19.70
2019-06-01T07:01:02.328Z,19.80
2019-06-01T07:03:44.326Z,19.80
2019-06-01T07:06:27.672Z,19.90
2019-06-01T07:08:57.591Z,20.00
2019-06-01T07:11:27.425Z,20.20
2019-06-01T07:13:58.902Z,20.30
2019-06-01T07:16:29.358Z,20.40
2019-06-01T07:19:02.350Z,20.60
2019-06-01T07:21:49.065Z,20.70
2019-06-01T07:24:27.949Z,20.80
2019-06-01T07:27:09.174Z,20.90
2019-06-01T07:29:47.274Z,20.90
2019-06-01T07:32:16.790Z,20.90
2019-06-01T07:34:46.358Z,21.00
2019-06-01T07:37:15.597Z,21.10
2019-06-01T07:40:04.202Z,21.10
2019-06-01T07:42:33.784Z,21.20
2019-06-01T07:45:03.521Z,21.30
2019-06-01T07:47:34.101Z,21.30
2019-06-01T07:50:03.992Z,21.30
2019-06-01T07:52:37.828Z,21.40
2019-06-01T07:55:08.298Z,21.50
2019-06-01T07:57:37.965Z,21.50
2019-06-01T08:00:07.786Z,21.50
2019-06-01T08:02:37.415Z,21.50
2019-06-01T08:05:07.569Z,21.60
2019-06-01T08:07:37.180Z,21.60
2019-06-01T08:10:07.079Z,21.70
2019-06-01T08:12:36.778Z,21.60
2019-06-01T08:15:07.038Z,21.60
2019-06-01T08:17:36.643Z,21.60
2019-06-01T08:20:06.766Z,21.60
2019-06-01T08:22:36.309Z,21.60
2019-06-01T08:25:06.131Z,21.70
2019-06-01T08:27:46.149Z,21.80
2019-06-01T08:30:36.227Z,21.90
2019-06-01T08:33:30.238Z,21.90
2019-06-01T08:35:58.122Z,22.10
2019-06-01T08:38:27.735Z,22.10
2019-06-01T08:40:57.359Z,22.20
2019-06-01T08:43:27.607Z,22.30
2019-06-01T08:45:57.452Z,22.20
2019-06-01T08:48:27.732Z,22.10
2019-06-01T08:50:57.416Z,22.10
2019-06-01T08:53:27.881Z,22.20
2019-06-01T08:55:57.619Z,22.40
2019-06-01T08:58:28.202Z,22.50
2019-06-01T09:00:58.027Z,22.60
2019-06-01T09:03:27.795Z,22.70
2019-06-01T09:05:57.469Z,22.70
2019-06-01T09:08:27.165Z,22.70
2019-06-01T09:10:56.862Z,22.70
2019-06-01T09:13:27.175Z,22.80
2019-06-01T09:15:56.955Z,22.80
2019-06-01T09:18:27.567Z,22.80
2019-06-01T09:20:57.254Z,22.80
2019-06-01T09:23:27.614Z,22.80
2019-06-01T09:25:57.318Z,22.80
2019-06-01T09:28:27.832Z,22.70
2019-06-01T09:30:57.522Z,22.80
2019-06-01T09:33:28.106Z,22.80
2019-06-01T09:35:57.894Z,22.80
2019-06-01T09:38:27.688Z,22.90
2019-06-01T09:40:57.422Z,22.80
2019-06-01T09:43:27.066Z,22.80
2019-06-01T09:45:56.731Z,22.80
2019-06-01T09:48:27.051Z,22.90
2019-06-01T09:50:56.758Z,22.90
2019-06-01T09:53:30.612Z,23.00
2019-06-01T09:56:00.865Z,23.00
2019-06-01T09:58:30.486Z,23.00
2019-06-01T10:01:00.161Z,23.00
2019-06-01T10:03:30.259Z,23.00
2019-06-01T10:06:02.138Z,23.00
2019-06-01T10:08:32.542Z,22.90
2019-06-01T10:11:02.800Z,22.90
2019-06-01T10:13:33.362Z,23.00
2019-06-01T10:16:03.698Z,23.10
2019-06-01T10:18:35.111Z,23.10
2019-06-01T10:21:04.594Z,23.20
2019-06-01T10:23:34.603Z,23.30
2019-06-01T10:26:04.282Z,23.30
2019-06-01T10:28:33.803Z,23.30
2019-06-01T10:31:03.360Z,23.30
2019-06-01T10:33:32.895Z,23.40
2019-06-01T10:36:19.194Z,23.40
2019-06-01T10:38:33.687Z,23.40
2019-06-01T10:41:03.276Z,23.50
2019-06-01T10:43:33.711Z,23.50
2019-06-01T10:46:03.414Z,23.60
2019-06-01T10:48:34.418Z,23.70
2019-06-01T10:51:04.112Z,23.70
2019-06-01T10:53:34.882Z,23.80
2019-06-01T10:56:05.270Z,23.80
2019-06-01T10:58:49.925Z,23.80
2019-06-01T11:01:06.073Z,23.80
2019-06-01T11:03:36.603Z,23.90
2019-06-01T11:06:06.366Z,23.90
2019-06-01T11:08:37.134Z,23.90
2019-06-01T11:11:06.720Z,24.00
2019-06-01T11:13:37.045Z,24.00
2019-06-01T11:16:06.783Z,24.10
2019-06-01T11:18:37.475Z,24.10
2019-06-01T11:21:07.172Z,24.10
2019-06-01T11:23:37.475Z,24.20
2019-06-01T11:26:07.347Z,24.20
2019-06-01T11:28:38.200Z,24.30
2019-06-01T11:31:07.897Z,24.30
2019-06-01T11:33:38.210Z,24.30
2019-06-01T11:36:08.076Z,24.30
2019-06-01T11:38:38.482Z,24.30
2019-06-01T11:41:09.224Z,24.30
2019-06-01T11:43:39.225Z,24.30
2019-06-01T11:46:08.773Z,24.30
2019-06-01T11:48:41.395Z,24.30
2019-06-01T11:51:13.331Z,24.40
2019-06-01T11:53:43.441Z,24.40
2019-06-01T11:56:13.108Z,24.50
2019-06-01T11:58:43.413Z,24.60
2019-06-01T12:01:13.417Z,24.70
2019-06-01T12:03:43.983Z,24.60
2019-06-01T12:06:14.722Z,24.60
2019-06-01T12:08:46.350Z,24.80
2019-06-01T12:11:23.554Z,24.80
2019-06-01T12:13:59.905Z,24.90
2019-06-01T12:16:29.775Z,25.00
2019-06-01T12:18:59.571Z,25.10
2019-06-01T12:21:29.858Z,25.20
2019-06-01T12:24:00.455Z,25.20
2019-06-01T12:26:30.331Z,25.20
2019-06-01T12:29:08.421Z,25.30
2019-06-01T12:31:39.518Z,25.40
2019-06-01T12:34:09.630Z,25.40
2019-06-01T12:36:40.926Z,25.50
2019-06-01T12:39:21.502Z,25.50
2019-06-01T12:41:51.847Z,25.50
2019-06-01T12:44:21.620Z,25.60
2019-06-01T12:46:51.367Z,25.70
2019-06-01T12:49:21.096Z,25.70
2019-06-01T12:51:50.905Z,25.70
2019-06-01T12:54:20.709Z,25.80
2019-06-01T12:56:50.566Z,25.90
2019-06-01T12:59:20.178Z,25.90
2019-06-01T13:01:49.742Z,26.00
2019-06-01T13:04:19.497Z,26.00
2019-06-01T13:06:52.036Z,26.00
2019-06-01T13:09:20.314Z,26.00
2019-06-01T13:11:51.374Z,26.00
2019-06-01T13:14:21.127Z,26.00
2019-06-01T13:17:06.002Z,26.10
2019-06-01T13:19:22.026Z,26.20
2019-06-01T13:22:05.497Z,26.10
2019-06-01T13:24:39.586Z,26.20
2019-06-01T13:27:11.908Z,26.20
2019-06-01T13:29:41.716Z,26.30
2019-06-01T13:32:29.412Z,26.30
2019-06-01T13:35:00.022Z,26.40
2019-06-01T13:37:29.766Z,26.50
2019-06-01T13:39:59.390Z,26.50
2019-06-01T13:42:29.069Z,26.60
2019-06-01T13:45:00.030Z,26.70
2019-06-01T13:47:30.091Z,26.50
2019-06-01T13:50:06.458Z,26.40
2019-06-01T13:52:34.444Z,26.30
2019-06-01T13:55:04.484Z,26.30
2019-06-01T13:57:34.405Z,26.40
2019-06-01T14:00:03.999Z,26.50
2019-06-01T14:02:33.725Z,26.70
2019-06-01T14:05:03.470Z,26.80
2019-06-01T14:07:33.080Z,26.90
2019-06-01T14:10:04.544Z,27.10
2019-06-01T14:12:37.217Z,27.10
2019-06-01T14:15:07.731Z,27.20
2019-06-01T14:17:39.389Z,27.30
2019-06-01T14:20:09.095Z,27.40
2019-06-01T14:22:39.119Z,27.50
2019-06-01T14:25:14.301Z,27.60
2019-06-01T14:27:40.323Z,27.70
2019-06-01T14:30:10.443Z,27.80
2019-06-01T14:32:39.989Z,27.90
2019-06-01T14:35:09.806Z,27.90
2019-06-01T14:37:39.371Z,27.80
2019-06-01T14:40:09.239Z,27.90
2019-06-01T14:42:38.872Z,27.90
2019-06-01T14:45:09.032Z,27.90
2019-06-01T14:47:45.293Z,28.00
2019-06-01T14:50:16.061Z,28.00
2019-06-01T14:52:47.498Z,28.10
2019-06-01T14:55:18.417Z,28.10
2019-06-01T14:57:48.537Z,28.10
2019-06-01T15:00:18.859Z,28.20
2019-06-01T15:02:49.939Z,28.20
2019-06-01T15:05:23.582Z,28.30
2019-06-01T15:07:56.800Z,28.40
2019-06-01T15:10:26.938Z,28.40
2019-06-01T15:13:03.969Z,28.40
2019-06-01T15:15:34.472Z,28.40
2019-06-01T15:18:15.129Z,28.40
2019-06-01T15:20:45.226Z,28.50
2019-06-01T15:23:15.099Z,28.70
2019-06-01T15:25:45.162Z,28.70
2019-06-01T15:28:15.067Z,28.80
2019-06-01T15:30:48.572Z,28.80
2019-06-01T15:33:18.786Z,28.80
2019-06-01T15:35:48.898Z,28.90
2019-06-01T15:38:19.081Z,28.80
2019-06-01T15:40:48.912Z,28.80
2019-06-01T15:43:19.626Z,28.90
2019-06-01T15:45:53.311Z,29.00
2019-06-01T15:48:23.057Z,29.10
2019-06-01T15:51:00.606Z,29.20
2019-06-01T15:53:27.098Z,29.20
2019-06-01T15:55:56.678Z,29.30
2019-06-01T15:58:26.316Z,29.20
2019-06-01T16:00:59.270Z,29.00
2019-06-01T16:03:29.064Z,29.00
2019-06-01T16:06:01.454Z,29.00
2019-06-01T16:08:31.079Z,29.00
2019-06-01T16:11:04.384Z,29.10
2019-06-01T16:13:31.961Z,29.10
2019-06-01T16:16:03.197Z,29.10
2019-06-01T16:18:32.910Z,29.10
2019-06-01T16:21:02.591Z,29.10
2019-06-01T16:23:48.657Z,29.10
2019-06-01T16:26:13.233Z,29.20
2019-06-01T16:28:35.605Z,29.20
2019-06-01T16:31:05.217Z,29.30
2019-06-01T16:33:34.974Z,29.30
2019-06-01T16:36:05.619Z,29.30
2019-06-01T16:38:35.307Z,29.40
2019-06-01T16:41:05.534Z,29.40
2019-06-01T16:43:35.174Z,29.40
2019-06-01T16:46:05.970Z,29.40
2019-06-01T16:48:35.835Z,29.30
2019-06-01T16:51:05.949Z,29.30
2019-06-01T16:53:35.642Z,29.30
2019-06-01T16:56:13.459Z,29.30
2019-06-01T16:58:43.695Z,29.20
2019-06-01T17:01:15.389Z,29.10
2019-06-01T17:03:45.075Z,29.10
2019-06-01T17:06:15.378Z,29.10
2019-06-01T17:08:45.018Z,29.00
2019-06-01T17:11:14.654Z,28.90
2019-06-01T17:13:44.466Z,28.90
2019-06-01T17:16:14.221Z,28.80
2019-06-01T17:18:44.053Z,28.70
2019-06-01T17:21:13.851Z,28.70
2019-06-01T17:23:43.527Z,28.60
2019-06-01T17:26:13.175Z,28.60
2019-06-01T17:28:58.252Z,28.50
2019-06-01T17:31:54.050Z,28.40
2019-06-01T17:34:12.347Z,28.40
2019-06-01T17:36:42.216Z,28.30
2019-06-01T17:39:12.291Z,28.30
2019-06-01T17:41:44.882Z,28.20
2019-06-01T17:44:14.468Z,28.10
2019-06-01T17:46:53.396Z,28.10
2019-06-01T17:49:15.420Z,28.00
2019-06-01T17:51:45.092Z,27.90
2019-06-01T17:54:14.658Z,27.90
2019-06-01T17:56:44.557Z,27.80
2019-06-01T17:59:14.203Z,27.80
2019-06-01T18:01:44.065Z,27.70
2019-06-01T18:04:13.676Z,27.60
2019-06-01T18:06:46.454Z,27.60
2019-06-01T18:09:16.242Z,27.50
2019-06-01T18:11:45.968Z,27.40
2019-06-01T18:14:15.703Z,27.30
2019-06-01T18:16:45.566Z,27.20
2019-06-01T18:19:15.264Z,27.10
2019-06-01T18:21:45.191Z,27.10
2019-06-01T18:24:14.877Z,27.00
2019-06-01T18:26:44.680Z,27.00
2019-06-01T18:29:14.408Z,26.90
2019-06-01T18:31:45.761Z,26.80
2019-06-01T18:34:15.444Z,26.80
2019-06-01T18:36:46.831Z,26.70
2019-06-01T18:39:16.879Z,26.60
2019-06-01T18:41:46.635Z,26.50
2019-06-01T18:44:16.565Z,26.40
2019-06-01T18:46:46.463Z,26.40
2019-06-01T18:49:18.234Z,26.30
2019-06-01T18:51:48.000Z,26.20
2019-06-01T18:54:17.782Z,26.10
2019-06-01T18:56:47.457Z,26.00
2019-06-01T18:59:17.067Z,25.90
2019-06-01T19:01:46.763Z,25.80
2019-06-01T19:04:16.468Z,25.60
2019-06-01T19:06:46.179Z,25.40
2019-06-01T19:09:15.882Z,25.20
2019-06-01T19:11:45.530Z,25.00
2019-06-01T19:14:16.027Z,24.70
2019-06-01T19:16:46.936Z,24.40
2019-06-01T19:19:16.764Z,24.30
2019-06-01T19:21:46.614Z,24.20
2019-06-01T19:24:16.732Z,24.10
2019-06-01T19:26:46.411Z,24.00
2019-06-01T19:29:17.011Z,23.90
2019-06-01T19:31:46.853Z,23.70
2019-06-01T19:34:17.282Z,23.60
2019-06-01T19:36:48.038Z,23.50
2019-06-01T19:39:17.715Z,23.40
2019-06-01T19:41:47.399Z,23.20
2019-06-01T19:44:17.872Z,23.10
2019-06-01T19:46:47.750Z,23.00
2019-06-01T19:49:19.021Z,22.80
2019-06-01T19:51:48.902Z,22.70
2019-06-01T19:54:19.048Z,22.70
2019-06-01T19:56:52.875Z,22.60
2019-06-01T19:59:22.521Z,22.50
2019-06-01T20:01:53.046Z,22.40
2019-06-01T20:04:23.015Z,22.20
2019-06-01T20:06:52.893Z,22.20
2019-06-01T20:09:22.564Z,22.00
2019-06-01T20:12:01.403Z,22.00
2019-06-01T20:14:23.605Z,21.80
2019-06-01T20:17:00.385Z,21.80
2019-06-01T20:19:30.120Z,21.80
2019-06-01T20:22:01.062Z,21.80
2019-06-01T20:24:30.774Z,21.80
2019-06-01T20:27:00.415Z,21.70
2019-06-01T20:29:29.990Z,21.70
2019-06-01T20:31:59.743Z,21.60
2019-06-01T20:34:29.450Z,21.60
2019-06-01T20:36:59.111Z,21.60
2019-06-01T20:39:28.777Z,21.60
2019-06-01T20:41:58.405Z,21.50
2019-06-01T20:44:28.122Z,21.40
2019-06-01T20:46:57.856Z,21.30
2019-06-01T20:49:27.846Z,21.30
2019-06-01T20:51:57.502Z,21.20
2019-06-01T20:54:27.183Z,21.20
2019-06-01T20:56:56.811Z,21.10
2019-06-01T20:59:26.557Z,21.10
2019-06-01T21:01:56.322Z,21.00
2019-06-01T21:04:26.011Z,21.00
2019-06-01T21:06:55.770Z,21.00
2019-06-01T21:09:25.420Z,21.00
2019-06-01T21:11:59.911Z,20.90
2019-06-01T21:14:32.979Z,20.80
2019-06-01T21:17:05.813Z,20.70
2019-06-01T21:19:36.428Z,20.50
2019-06-01T21:22:07.286Z,20.50
2019-06-01T21:33:30.101Z,20.20
2019-06-01T21:36:15.234Z,20.20
2019-06-01T21:38:45.085Z,20.10
2019-06-01T21:41:15.508Z,19.90
2019-06-01T21:43:45.133Z,19.90
2019-06-01T21:46:15.555Z,20.00
2019-06-01T21:48:50.964Z,20.00
2019-06-01T21:51:26.029Z,19.90
2019-06-01T21:53:57.539Z,19.90
2019-06-01T21:56:27.576Z,19.80
2019-06-01T21:59:02.204Z,19.80
2019-06-01T22:01:32.668Z,19.80
2019-06-01T22:04:04.125Z,19.80
2019-06-01T22:06:34.209Z,19.80
2019-06-01T22:09:04.045Z,19.70
2019-06-01T22:11:33.612Z,19.50
2019-06-01T22:14:03.113Z,19.50
2019-06-01T22:16:33.264Z,19.40
2019-06-01T22:19:03.066Z,19.40
2019-06-01T22:21:32.586Z,19.40
2019-06-01T22:24:02.101Z,19.50
2019-06-01T22:26:31.799Z,19.20
2019-06-01T22:29:01.421Z,19.20
2019-06-01T22:31:30.982Z,19.10
2019-06-01T22:34:00.485Z,18.90
2019-06-01T22:36:29.973Z,18.90
2019-06-01T22:38:59.614Z,19.10
2019-06-01T22:41:29.015Z,19.10
2019-06-01T22:44:01.363Z,19.00
2019-06-01T22:46:30.641Z,18.90
2019-06-01T22:48:59.906Z,19.00
2019-06-01T22:51:29.603Z,19.10
2019-06-01T22:53:59.034Z,19.10
2019-06-01T22:56:29.376Z,19.20
2019-06-01T22:58:58.743Z,19.20
2019-06-01T23:01:28.810Z,19.30
2019-06-01T23:03:58.168Z,19.20
2019-06-01T23:06:27.426Z,19.10
2019-06-01T23:08:56.576Z,19.10
2019-06-01T23:11:25.738Z,19.00
2019-06-01T23:13:55.011Z,19.10
2019-06-01T23:16:25.522Z,19.00
2019-06-01T23:18:54.928Z,19.00
2019-06-01T23:21:25.664Z,19.00
2019-06-01T23:23:55.006Z,18.90
2019-06-01T23:26:24.251Z,18.80
2019-06-01T23:28:53.510Z,18.70
2019-06-01T23:31:22.790Z,18.60
2019-06-01T23:33:51.997Z,18.40
2019-06-01T23:36:22.442Z,18.30
2019-06-01T23:38:51.881Z,18.20
2019-06-01T23:41:22.394Z,18.10
2019-06-01T23:44:10.204Z,18.10
2019-06-01T23:46:26.956Z,18.10
2019-06-01T23:48:56.220Z,18.20
2019-06-01T23:51:25.489Z,18.20
2019-06-01T23:53:54.791Z,18.30
2019-06-01T23:56:24.049Z,18.30
2019-06-01T23:58:56.161Z,18.40
